Current | Forecast
Updated: 2:30 AM JST on April 29, 2017
Observed at Nagoya / Chubu, Japan
Temperature 55°F
Humidity 77%
Dew Point 48°F
Wind South at 2 mph
Pressure 29.74 in (Steady)
Conditions Partly Cloudy
Visibility 6.2 miles
UV 0 out of 16
Clouds (FEW) : 3000 ft
Yesterday's Maximum 68°F
Yesterday's Minimum 50°F approx.
Yesterday's Heating Degree Days 6 approx.
Sunrise5:05 AM JST
Sunset6:34 PM JST
Moon Rise7:24 AM JST
Moon Set9:39 PM JST
Moon PhaseMoon Phase
Waxing Crescent
Raw METARMETAR RJGG 281730Z 17002KT 9999 FEW030 13/09 Q1007 NOSIG


Monday
. High: 69° F.
Tuesday
. High: 69° F.
Wednesday
. High: 69° F.
Thursday
. High: 68° F.
Friday
. High: 69° F.
Saturday
. High: 69° F.
Sunday
. High: 71° F.
Monday
. High: 71° F.

Units: English | Metric

Find the Weather for any City, State or Zipcode, or Country:

U.S. State List | Severe Weather | Tropical Storms | Ski Conditions
United States | Canada | Central America | South America | Asia | Europe | Australia | Africa | Islands

Weather Underground

© Copyright 2017
The Weather Company, LLC